Estación Meteorológica Peña el Pijo (Robertgarden) [ 07/19/24 12:34:30 CEST ]

Fecha Hora Presion(HPa) Temp (°C) Humedad % Rocio (°C) Viento ( m/s) Direccion Lluvia 1Hora(mm) Lluvia 24H(mm) LLuvia Total(mm)
2008-Jul-28 01:05:13 1014.900 16.4 58 8.1         232.56
2008-Jul-28 02:05:13 1014.900 16.3 57 7.8         232.56
2008-Jul-28 03:05:14 1014.300 14.9 59 7.0         232.56
2008-Jul-28 04:05:17 1014.100 14.9 59 7.0         232.56
2008-Jul-28 05:05:12 1013.700 15.3 57 6.8         232.56
2008-Jul-28 06:05:12 1013.300 15.6 57 7.1         232.56
2008-Jul-28 07:05:23 1013.500 13.5 66 7.2         232.56
2008-Jul-28 08:05:14 1013.700 14.9 67 8.8         232.56
2008-Jul-28 09:05:17 1013.500 21.8 53 11.8         232.56
2008-Jul-28 10:05:13 1013.500 27.8 38 12.1         232.56
2008-Jul-28 11:05:16 1013.200 32.0 27 10.5         232.56
2008-Jul-28 12:05:16 1012.900 33.6 22 8.8         232.56
2008-Jul-28 13:05:14 1012.700 33.9 20 7.8         232.56
2008-Jul-28 14:05:14 1012.500 35.8 16 5.4 1.0 NW     232.56
2008-Jul-28 15:05:16 1012.400 35.4 15 4.1         232.56
2008-Jul-28 16:05:14 1012.000 36.2 19 8.8 1.3 WNW     232.56
2008-Jul-28 17:05:12 1011.800 37.1 13 3.5         232.56
2008-Jul-28 18:05:12 1011.800 35.4 13 2.1 0.5 SSE     232.56
2008-Jul-28 19:05:25 1011.800 34.6 14 2.5         232.56
2008-Jul-28 20:05:16 1012.000 31.5 16 2.0 2.0 SE     232.56
2008-Jul-28 21:05:13 1012.800 27.9 17 0.1         232.56
2008-Jul-28 22:05:13 1013.200 22.8 26 2.1         232.56
2008-Jul-28 23:05:17 1014.100 19.2 34 2.9         232.56

Temperatura Máxima:37°    Temperatura Mínima:13°
Presión Máxima:1014.900 Hpa    Presión Mínima:1011.800 Hpa


Volver